sensor_id;sensor_type;location;lat;lon;timestamp;P1;durP1;ratioP1;P2;durP2;ratioP2
54121;SDS011;40029;58.708;50.190;2023-01-28T06:27:39;3.40;;;1.20;;
54121;SDS011;40029;58.708;50.190;2023-01-28T06:30:10;3.28;;;1.38;;
54121;SDS011;40029;58.708;50.190;2023-01-28T06:32:42;4.88;;;2.10;;
54121;SDS011;40029;58.708;50.190;2023-01-28T06:35:14;8.18;;;3.08;;
54121;SDS011;40029;58.708;50.190;2023-01-28T06:37:45;2.80;;;1.38;;
54121;SDS011;40029;58.708;50.190;2023-01-28T06:40:16;3.42;;;1.50;;
54121;SDS011;40029;58.708;50.190;2023-01-28T06:42:52;4.95;;;2.30;;
54121;SDS011;40029;58.708;50.190;2023-01-28T06:45:23;6.53;;;2.25;;
54121;SDS011;40029;58.708;50.190;2023-01-28T06:47:54;6.10;;;2.95;;
54121;SDS011;40029;58.708;50.190;2023-01-28T06:50:25;8.00;;;3.20;;
54121;SDS011;40029;58.708;50.190;2023-01-28T06:52:56;5.32;;;2.38;;
54121;SDS011;40029;58.708;50.190;2023-01-28T06:55:27;5.72;;;2.60;;
54121;SDS011;40029;58.708;50.190;2023-01-28T06:57:58;12.88;;;4.00;;
54121;SDS011;40029;58.708;50.190;2023-01-28T07:00:29;8.43;;;4.15;;
54121;SDS011;40029;58.708;50.190;2023-01-28T07:03:00;22.02;;;6.53;;
54121;SDS011;40029;58.708;50.190;2023-01-28T07:05:31;19.65;;;8.40;;
54121;SDS011;40029;58.708;50.190;2023-01-28T07:08:02;7.18;;;3.25;;
54121;SDS011;40029;58.708;50.190;2023-01-28T07:10:34;4.88;;;2.20;;
54121;SDS011;40029;58.708;50.190;2023-01-28T07:13:04;4.20;;;2.30;;
54121;SDS011;40029;58.708;50.190;2023-01-28T07:15:35;11.55;;;5.88;;
54121;SDS011;40029;58.708;50.190;2023-01-28T07:18:06;9.90;;;3.30;;
54121;SDS011;40029;58.708;50.190;2023-01-28T07:20:37;6.60;;;2.90;;
54121;SDS011;40029;58.708;50.190;2023-01-28T07:23:08;6.97;;;2.35;;
54121;SDS011;40029;58.708;50.190;2023-01-28T07:25:39;6.00;;;1.45;;
54121;SDS011;40029;58.708;50.190;2023-01-28T07:28:11;4.53;;;2.13;;
54121;SDS011;40029;58.708;50.190;2023-01-28T07:30:42;6.72;;;2.80;;
54121;SDS011;40029;58.708;50.190;2023-01-28T07:33:13;11.57;;;4.20;;
54121;SDS011;40029;58.708;50.190;2023-01-28T07:35:44;23.83;;;7.80;;
54121;SDS011;40029;58.708;50.190;2023-01-28T07:38:17;25.27;;;7.38;;
54121;SDS011;40029;58.708;50.190;2023-01-28T07:40:48;22.70;;;7.82;;
54121;SDS011;40029;58.708;50.190;2023-01-28T07:43:19;15.90;;;6.15;;
54121;SDS011;40029;58.708;50.190;2023-01-28T07:45:53;4.07;;;1.83;;
54121;SDS011;40029;58.708;50.190;2023-01-28T07:48:24;44.40;;;13.73;;
54121;SDS011;40029;58.708;50.190;2023-01-28T07:50:57;10.40;;;4.45;;
54121;SDS011;40029;58.708;50.190;2023-01-28T07:53:29;8.10;;;4.15;;
54121;SDS011;40029;58.708;50.190;2023-01-28T07:56:00;14.70;;;7.35;;
54121;SDS011;40029;58.708;50.190;2023-01-28T07:58:33;7.30;;;4.72;;
54121;SDS011;40029;58.708;50.190;2023-01-28T08:01:04;11.80;;;4.10;;
54121;SDS011;40029;58.708;50.190;2023-01-28T08:03:35;6.95;;;2.58;;
54121;SDS011;40029;58.708;50.190;2023-01-28T08:06:06;10.43;;;3.40;;
54121;SDS011;40029;58.708;50.190;2023-01-28T08:08:37;9.57;;;3.30;;
54121;SDS011;40029;58.708;50.190;2023-01-28T08:11:08;1.92;;;0.80;;
54121;SDS011;40029;58.708;50.190;2023-01-28T08:13:40;2.45;;;1.50;;
54121;SDS011;40029;58.708;50.190;2023-01-28T08:16:11;1.52;;;0.85;;
54121;SDS011;40029;58.708;50.190;2023-01-28T08:18:42;3.65;;;1.45;;
54121;SDS011;40029;58.708;50.190;2023-01-28T08:21:13;9.68;;;2.80;;
54121;SDS011;40029;58.708;50.190;2023-01-28T08:23:44;7.93;;;3.40;;
54121;SDS011;40029;58.708;50.190;2023-01-28T08:26:15;13.13;;;4.38;;
54121;SDS011;40029;58.708;50.190;2023-01-28T08:28:46;14.10;;;5.13;;
54121;SDS011;40029;58.708;50.190;2023-01-28T08:31:17;13.05;;;4.85;;
54121;SDS011;40029;58.708;50.190;2023-01-28T08:33:48;4.00;;;1.85;;
54121;SDS011;40029;58.708;50.190;2023-01-28T08:36:19;4.28;;;2.05;;
54121;SDS011;40029;58.708;50.190;2023-01-28T08:38:51;5.78;;;2.50;;
54121;SDS011;40029;58.708;50.190;2023-01-28T08:41:23;11.20;;;2.53;;
54121;SDS011;40029;58.708;50.190;2023-01-28T08:43:55;6.10;;;1.70;;
54121;SDS011;40029;58.708;50.190;2023-01-28T08:46:26;7.18;;;2.17;;
54121;SDS011;40029;58.708;50.190;2023-01-28T08:48:57;3.63;;;1.52;;
54121;SDS011;40029;58.708;50.190;2023-01-28T08:51:27;5.32;;;1.70;;
54121;SDS011;40029;58.708;50.190;2023-01-28T08:53:59;2.47;;;1.38;;
54121;SDS011;40029;58.708;50.190;2023-01-28T08:56:31;5.15;;;2.00;;
54121;SDS011;40029;58.708;50.190;2023-01-28T08:59:02;6.40;;;2.38;;
54121;SDS011;40029;58.708;50.190;2023-01-28T09:01:34;6.07;;;2.97;;
54121;SDS011;40029;58.708;50.190;2023-01-28T09:04:04;3.47;;;1.55;;
54121;SDS011;40029;58.708;50.190;2023-01-28T09:06:36;7.47;;;2.75;;
54121;SDS011;40029;58.708;50.190;2023-01-28T09:09:07;9.75;;;4.20;;
54121;SDS011;40029;58.708;50.190;2023-01-28T09:11:38;12.00;;;4.00;;
54121;SDS011;40029;58.708;50.190;2023-01-28T09:14:09;7.95;;;3.22;;
54121;SDS011;40029;58.708;50.190;2023-01-28T09:16:40;2.53;;;0.90;;
54121;SDS011;40029;58.708;50.190;2023-01-28T09:19:11;1.77;;;0.93;;
54121;SDS011;40029;58.708;50.190;2023-01-28T09:21:42;1.77;;;0.90;;
54121;SDS011;40029;58.708;50.190;2023-01-28T09:24:13;0.95;;;0.50;;
54121;SDS011;40029;58.708;50.190;2023-01-28T09:26:44;2.03;;;1.60;;
54121;SDS011;40029;58.708;50.190;2023-01-28T09:29:15;2.05;;;1.15;;
54121;SDS011;40029;58.708;50.190;2023-01-28T09:31:46;4.32;;;2.17;;
54121;SDS011;40029;58.708;50.190;2023-01-28T09:34:17;1.88;;;0.88;;
54121;SDS011;40029;58.708;50.190;2023-01-28T09:36:48;4.18;;;1.30;;
54121;SDS011;40029;58.708;50.190;2023-01-28T09:39:19;5.55;;;1.25;;
54121;SDS011;40029;58.708;50.190;2023-01-28T09:47:47;8.43;;;3.53;;
54121;SDS011;40029;58.708;50.190;2023-01-28T09:53:05;2.17;;;0.90;;
54121;SDS011;40029;58.708;50.190;2023-01-28T09:55:43;7.45;;;2.63;;
54121;SDS011;40029;58.708;50.190;2023-01-28T09:58:17;15.80;;;6.63;;
54121;SDS011;40029;58.708;50.190;2023-01-28T10:04:52;4.40;;;1.70;;
54121;SDS011;40029;58.708;50.190;2023-01-28T10:07:08;5.93;;;2.58;;
54121;SDS011;40029;58.708;50.190;2023-01-28T10:13:10;4.15;;;1.95;;
54121;SDS011;40029;58.708;50.190;2023-01-28T10:18:15;7.30;;;2.08;;
54121;SDS011;40029;58.708;50.190;2023-01-28T10:21:12;9.50;;;2.50;;
54121;SDS011;40029;58.708;50.190;2023-01-28T10:23:51;14.52;;;5.57;;
54121;SDS011;40029;58.708;50.190;2023-01-28T10:26:30;36.30;;;12.02;;
54121;SDS011;40029;58.708;50.190;2023-01-28T10:29:27;21.35;;;8.65;;
54121;SDS011;40029;58.708;50.190;2023-01-28T10:32:05;27.17;;;10.48;;
54121;SDS011;40029;58.708;50.190;2023-01-28T10:34:51;10.10;;;4.60;;
54121;SDS011;40029;58.708;50.190;2023-01-28T10:37:23;15.80;;;5.80;;
54121;SDS011;40029;58.708;50.190;2023-01-28T10:39:55;15.65;;;7.38;;
54121;SDS011;40029;58.708;50.190;2023-01-28T10:42:32;16.77;;;7.70;;
54121;SDS011;40029;58.708;50.190;2023-01-28T10:45:14;9.95;;;4.30;;
54121;SDS011;40029;58.708;50.190;2023-01-28T10:47:47;7.22;;;3.00;;
54121;SDS011;40029;58.708;50.190;2023-01-28T10:50:22;9.73;;;4.35;;
54121;SDS011;40029;58.708;50.190;2023-01-28T10:52:59;16.40;;;5.85;;
54121;SDS011;40029;58.708;50.190;2023-01-28T10:55:45;27.48;;;8.65;;
54121;SDS011;40029;58.708;50.190;2023-01-28T10:58:21;11.57;;;4.57;;
54121;SDS011;40029;58.708;50.190;2023-01-28T11:01:04;7.88;;;4.95;;
54121;SDS011;40029;58.708;50.190;2023-01-28T11:03:36;26.17;;;8.73;;
54121;SDS011;40029;58.708;50.190;2023-01-28T11:06:16;36.00;;;11.45;;
54121;SDS011;40029;58.708;50.190;2023-01-28T11:08:55;13.45;;;5.90;;
54121;SDS011;40029;58.708;50.190;2023-01-28T11:11:26;8.88;;;5.25;;
54121;SDS011;40029;58.708;50.190;2023-01-28T11:13:59;13.73;;;5.85;;
54121;SDS011;40029;58.708;50.190;2023-01-28T11:16:30;13.15;;;5.78;;
54121;SDS011;40029;58.708;50.190;2023-01-28T11:19:04;7.03;;;4.00;;
54121;SDS011;40029;58.708;50.190;2023-01-28T11:24:13;7.57;;;3.85;;
54121;SDS011;40029;58.708;50.190;2023-01-28T11:26:51;19.63;;;6.63;;
54121;SDS011;40029;58.708;50.190;2023-01-28T11:29:31;48.70;;;17.25;;
54121;SDS011;40029;58.708;50.190;2023-01-28T11:32:04;18.50;;;7.75;;
54121;SDS011;40029;58.708;50.190;2023-01-28T11:34:49;12.27;;;5.07;;
54121;SDS011;40029;58.708;50.190;2023-01-28T11:37:23;17.83;;;8.23;;
54121;SDS011;40029;58.708;50.190;2023-01-28T11:40:15;26.30;;;10.55;;
54121;SDS011;40029;58.708;50.190;2023-01-28T11:42:50;29.10;;;10.48;;
54121;SDS011;40029;58.708;50.190;2023-01-28T11:46:30;29.65;;;10.65;;
54121;SDS011;40029;58.708;50.190;2023-01-28T11:54:17;16.30;;;6.00;;
54121;SDS011;40029;58.708;50.190;2023-01-28T12:13:26;50.25;;;15.05;;
54121;SDS011;40029;58.708;50.190;2023-01-28T12:27:50;13.45;;;7.18;;
54121;SDS011;40029;58.708;50.190;2023-01-28T12:48:08;30.65;;;12.75;;
54121;SDS011;40029;58.708;50.190;2023-01-28T12:50:45;35.75;;;14.68;;
54121;SDS011;40029;58.708;50.190;2023-01-28T12:56:42;11.30;;;5.60;;
54121;SDS011;40029;58.708;50.190;2023-01-28T12:59:28;55.42;;;18.73;;
54121;SDS011;40029;58.708;50.190;2023-01-28T13:02:25;41.10;;;13.90;;
54121;SDS011;40029;58.708;50.190;2023-01-28T13:05:21;78.55;;;26.48;;
54121;SDS011;40029;58.708;50.190;2023-01-28T13:08:05;61.83;;;23.20;;
54121;SDS011;40029;58.708;50.190;2023-01-28T13:10:47;42.78;;;16.35;;
54121;SDS011;40029;58.708;50.190;2023-01-28T13:16:09;52.75;;;18.88;;
54121;SDS011;40029;58.708;50.190;2023-01-28T13:26:48;58.70;;;19.00;;
54121;SDS011;40029;58.708;50.190;2023-01-28T13:31:56;44.33;;;17.27;;
54121;SDS011;40029;58.708;50.190;2023-01-28T13:40:23;22.88;;;7.32;;
54121;SDS011;40029;58.708;50.190;2023-01-28T13:45:33;38.10;;;13.07;;
54121;SDS011;40029;58.708;50.190;2023-01-28T13:51:01;51.95;;;17.45;;
54121;SDS011;40029;58.708;50.190;2023-01-28T13:56:22;16.20;;;6.70;;
54121;SDS011;40029;58.708;50.190;2023-01-28T13:59:03;26.02;;;9.40;;
54121;SDS011;40029;58.708;50.190;2023-01-28T14:04:55;41.88;;;15.18;;
54121;SDS011;40029;58.708;50.190;2023-01-28T14:08:00;23.25;;;9.63;;
54121;SDS011;40029;58.708;50.190;2023-01-28T14:13:46;22.67;;;9.95;;
54121;SDS011;40029;58.708;50.190;2023-01-28T14:16:47;23.92;;;10.55;;
54121;SDS011;40029;58.708;50.190;2023-01-28T14:19:29;31.13;;;11.10;;
54121;SDS011;40029;58.708;50.190;2023-01-28T14:22:07;34.20;;;12.20;;
54121;SDS011;40029;58.708;50.190;2023-01-28T14:24:39;36.45;;;14.45;;
54121;SDS011;40029;58.708;50.190;2023-01-28T14:30:07;72.30;;;23.00;;
54121;SDS011;40029;58.708;50.190;2023-01-28T14:32:48;68.53;;;23.92;;
54121;SDS011;40029;58.708;50.190;2023-01-28T14:35:31;49.10;;;17.67;;
54121;SDS011;40029;58.708;50.190;2023-01-28T14:38:06;60.83;;;22.42;;
54121;SDS011;40029;58.708;50.190;2023-01-28T14:40:38;38.78;;;15.07;;
54121;SDS011;40029;58.708;50.190;2023-01-28T14:43:23;36.10;;;15.73;;
54121;SDS011;40029;58.708;50.190;2023-01-28T14:46:08;56.10;;;20.17;;
54121;SDS011;40029;58.708;50.190;2023-01-28T14:57:55;57.78;;;18.65;;
54121;SDS011;40029;58.708;50.190;2023-01-28T15:00:30;71.93;;;23.02;;
54121;SDS011;40029;58.708;50.190;2023-01-28T15:03:16;28.98;;;13.50;;
54121;SDS011;40029;58.708;50.190;2023-01-28T15:05:48;37.90;;;15.65;;
54121;SDS011;40029;58.708;50.190;2023-01-28T15:08:22;58.15;;;23.33;;
54121;SDS011;40029;58.708;50.190;2023-01-28T15:13:25;59.13;;;20.58;;
54121;SDS011;40029;58.708;50.190;2023-01-28T15:18:34;61.15;;;22.20;;
54121;SDS011;40029;58.708;50.190;2023-01-28T15:21:10;37.25;;;15.18;;
54121;SDS011;40029;58.708;50.190;2023-01-28T15:23:41;51.45;;;18.02;;
54121;SDS011;40029;58.708;50.190;2023-01-28T15:26:16;79.03;;;31.10;;
54121;SDS011;40029;58.708;50.190;2023-01-28T15:28:53;72.10;;;26.73;;
54121;SDS011;40029;58.708;50.190;2023-01-28T15:31:29;54.10;;;21.83;;
54121;SDS011;40029;58.708;50.190;2023-01-28T15:36:40;66.85;;;18.15;;
54121;SDS011;40029;58.708;50.190;2023-01-28T15:39:13;54.42;;;15.40;;
54121;SDS011;40029;58.708;50.190;2023-01-28T15:47:27;61.45;;;20.23;;
54121;SDS011;40029;58.708;50.190;2023-01-28T15:50:05;37.45;;;13.50;;
54121;SDS011;40029;58.708;50.190;2023-01-28T15:52:38;25.65;;;11.75;;
54121;SDS011;40029;58.708;50.190;2023-01-28T15:58:47;37.95;;;17.38;;
54121;SDS011;40029;58.708;50.190;2023-01-28T16:03:40;25.48;;;11.32;;
54121;SDS011;40029;58.708;50.190;2023-01-28T16:08:59;33.30;;;11.98;;
54121;SDS011;40029;58.708;50.190;2023-01-28T16:11:34;30.35;;;10.75;;
54121;SDS011;40029;58.708;50.190;2023-01-28T16:14:24;19.52;;;8.23;;
54121;SDS011;40029;58.708;50.190;2023-01-28T16:16:57;13.88;;;7.03;;
54121;SDS011;40029;58.708;50.190;2023-01-28T16:19:30;21.20;;;8.95;;
54121;SDS011;40029;58.708;50.190;2023-01-28T16:22:07;20.25;;;8.77;;
54121;SDS011;40029;58.708;50.190;2023-01-28T16:24:49;15.30;;;7.47;;
54121;SDS011;40029;58.708;50.190;2023-01-28T16:27:26;24.42;;;9.80;;
54121;SDS011;40029;58.708;50.190;2023-01-28T16:29:58;38.65;;;16.40;;
54121;SDS011;40029;58.708;50.190;2023-01-28T16:32:37;39.35;;;15.55;;
54121;SDS011;40029;58.708;50.190;2023-01-28T16:35:13;28.58;;;9.63;;
54121;SDS011;40029;58.708;50.190;2023-01-28T16:37:47;34.70;;;15.82;;
54121;SDS011;40029;58.708;50.190;2023-01-28T16:40:20;33.97;;;14.73;;
54121;SDS011;40029;58.708;50.190;2023-01-28T16:42:53;29.00;;;13.07;;
54121;SDS011;40029;58.708;50.190;2023-01-28T16:45:25;25.67;;;12.25;;
54121;SDS011;40029;58.708;50.190;2023-01-28T16:47:56;15.32;;;7.53;;
54121;SDS011;40029;58.708;50.190;2023-01-28T16:50:28;16.05;;;7.80;;
54121;SDS011;40029;58.708;50.190;2023-01-28T16:52:59;20.67;;;9.48;;
54121;SDS011;40029;58.708;50.190;2023-01-28T16:55:30;15.88;;;7.40;;
54121;SDS011;40029;58.708;50.190;2023-01-28T16:58:01;21.85;;;9.20;;
54121;SDS011;40029;58.708;50.190;2023-01-28T17:00:32;16.80;;;8.10;;
54121;SDS011;40029;58.708;50.190;2023-01-28T17:03:06;19.63;;;7.70;;
54121;SDS011;40029;58.708;50.190;2023-01-28T17:05:37;27.42;;;9.52;;
54121;SDS011;40029;58.708;50.190;2023-01-28T17:08:08;38.05;;;10.30;;
54121;SDS011;40029;58.708;50.190;2023-01-28T17:10:39;14.77;;;6.63;;
54121;SDS011;40029;58.708;50.190;2023-01-28T17:13:10;10.65;;;5.43;;
54121;SDS011;40029;58.708;50.190;2023-01-28T17:15:41;17.55;;;6.25;;
54121;SDS011;40029;58.708;50.190;2023-01-28T17:18:12;12.70;;;6.47;;
54121;SDS011;40029;58.708;50.190;2023-01-28T17:20:43;10.90;;;5.78;;
54121;SDS011;40029;58.708;50.190;2023-01-28T17:23:15;11.15;;;5.63;;
54121;SDS011;40029;58.708;50.190;2023-01-28T17:25:47;10.98;;;4.82;;
54121;SDS011;40029;58.708;50.190;2023-01-28T17:28:18;18.88;;;6.07;;
54121;SDS011;40029;58.708;50.190;2023-01-28T17:30:49;11.38;;;4.75;;
54121;SDS011;40029;58.708;50.190;2023-01-28T17:33:20;7.38;;;4.55;;
54121;SDS011;40029;58.708;50.190;2023-01-28T17:35:51;8.75;;;4.38;;
54121;SDS011;40029;58.708;50.190;2023-01-28T17:38:23;9.80;;;4.22;;
54121;SDS011;40029;58.708;50.190;2023-01-28T17:40:54;7.60;;;4.18;;
54121;SDS011;40029;58.708;50.190;2023-01-28T17:43:31;7.82;;;4.38;;
54121;SDS011;40029;58.708;50.190;2023-01-28T17:46:10;8.35;;;4.28;;
54121;SDS011;40029;58.708;50.190;2023-01-28T17:48:42;17.88;;;5.25;;
54121;SDS011;40029;58.708;50.190;2023-01-28T17:51:15;11.25;;;5.78;;
54121;SDS011;40029;58.708;50.190;2023-01-28T17:53:48;10.93;;;5.18;;
54121;SDS011;40029;58.708;50.190;2023-01-28T17:56:25;7.93;;;4.17;;
54121;SDS011;40029;58.708;50.190;2023-01-28T17:58:59;12.23;;;6.40;;
54121;SDS011;40029;58.708;50.190;2023-01-28T18:01:36;11.73;;;5.32;;
54121;SDS011;40029;58.708;50.190;2023-01-28T18:04:07;14.38;;;6.32;;
54121;SDS011;40029;58.708;50.190;2023-01-28T18:06:39;9.57;;;5.68;;
54121;SDS011;40029;58.708;50.190;2023-01-28T18:09:10;16.73;;;6.32;;
54121;SDS011;40029;58.708;50.190;2023-01-28T18:11:46;17.65;;;7.57;;
54121;SDS011;40029;58.708;50.190;2023-01-28T18:14:17;8.77;;;4.18;;
54121;SDS011;40029;58.708;50.190;2023-01-28T18:16:48;11.05;;;6.47;;
54121;SDS011;40029;58.708;50.190;2023-01-28T18:19:19;12.98;;;6.57;;
54121;SDS011;40029;58.708;50.190;2023-01-28T18:21:50;7.38;;;5.05;;
54121;SDS011;40029;58.708;50.190;2023-01-28T18:24:25;11.90;;;5.47;;
54121;SDS011;40029;58.708;50.190;2023-01-28T18:26:59;10.55;;;5.43;;
54121;SDS011;40029;58.708;50.190;2023-01-28T18:29:32;19.50;;;7.63;;
54121;SDS011;40029;58.708;50.190;2023-01-28T18:32:03;15.88;;;5.88;;
54121;SDS011;40029;58.708;50.190;2023-01-28T18:34:34;4.50;;;3.17;;
54121;SDS011;40029;58.708;50.190;2023-01-28T18:37:05;6.78;;;3.15;;
54121;SDS011;40029;58.708;50.190;2023-01-28T18:39:38;10.05;;;2.90;;
54121;SDS011;40029;58.708;50.190;2023-01-28T18:42:09;6.45;;;3.83;;
54121;SDS011;40029;58.708;50.190;2023-01-28T18:44:40;12.13;;;3.80;;
54121;SDS011;40029;58.708;50.190;2023-01-28T18:47:11;8.85;;;3.13;;
54121;SDS011;40029;58.708;50.190;2023-01-28T18:49:42;5.20;;;3.03;;
54121;SDS011;40029;58.708;50.190;2023-01-28T18:52:13;3.33;;;2.25;;
54121;SDS011;40029;58.708;50.190;2023-01-28T18:54:44;4.43;;;2.35;;
54121;SDS011;40029;58.708;50.190;2023-01-28T18:57:15;7.75;;;2.67;;
54121;SDS011;40029;58.708;50.190;2023-01-28T18:59:46;1.80;;;1.45;;
54121;SDS011;40029;58.708;50.190;2023-01-28T19:02:18;3.78;;;1.67;;
54121;SDS011;40029;58.708;50.190;2023-01-28T19:04:53;8.85;;;2.63;;
54121;SDS011;40029;58.708;50.190;2023-01-28T19:07:25;9.63;;;3.22;;
54121;SDS011;40029;58.708;50.190;2023-01-28T19:09:56;6.53;;;2.78;;
54121;SDS011;40029;58.708;50.190;2023-01-28T19:12:27;7.80;;;3.10;;
54121;SDS011;40029;58.708;50.190;2023-01-28T19:15:01;3.85;;;2.00;;
54121;SDS011;40029;58.708;50.190;2023-01-28T19:17:33;5.32;;;2.28;;
54121;SDS011;40029;58.708;50.190;2023-01-28T19:20:04;5.03;;;2.63;;
54121;SDS011;40029;58.708;50.190;2023-01-28T19:22:36;7.90;;;2.47;;
54121;SDS011;40029;58.708;50.190;2023-01-28T19:25:07;3.45;;;1.92;;
54121;SDS011;40029;58.708;50.190;2023-01-28T19:27:38;4.03;;;2.00;;
54121;SDS011;40029;58.708;50.190;2023-01-28T19:30:09;3.38;;;1.58;;
54121;SDS011;40029;58.708;50.190;2023-01-28T19:32:41;5.57;;;1.60;;
54121;SDS011;40029;58.708;50.190;2023-01-28T19:35:11;6.55;;;2.15;;
54121;SDS011;40029;58.708;50.190;2023-01-28T19:37:43;7.60;;;1.90;;
54121;SDS011;40029;58.708;50.190;2023-01-28T19:40:13;5.75;;;2.08;;
54121;SDS011;40029;58.708;50.190;2023-01-28T19:42:45;8.77;;;4.18;;
54121;SDS011;40029;58.708;50.190;2023-01-28T19:45:16;24.52;;;9.52;;
54121;SDS011;40029;58.708;50.190;2023-01-28T19:47:47;8.93;;;3.95;;
54121;SDS011;40029;58.708;50.190;2023-01-28T19:50:18;5.13;;;1.77;;
54121;SDS011;40029;58.708;50.190;2023-01-28T19:52:49;5.38;;;2.75;;
54121;SDS011;40029;58.708;50.190;2023-01-28T19:55:20;6.10;;;2.85;;
54121;SDS011;40029;58.708;50.190;2023-01-28T19:57:51;4.38;;;2.67;;
54121;SDS011;40029;58.708;50.190;2023-01-28T20:00:22;5.28;;;2.78;;
54121;SDS011;40029;58.708;50.190;2023-01-28T20:02:53;7.60;;;3.25;;
54121;SDS011;40029;58.708;50.190;2023-01-28T20:05:24;7.75;;;3.38;;
54121;SDS011;40029;58.708;50.190;2023-01-28T20:07:55;8.13;;;3.53;;
54121;SDS011;40029;58.708;50.190;2023-01-28T20:10:26;5.07;;;2.33;;
54121;SDS011;40029;58.708;50.190;2023-01-28T20:12:57;7.43;;;3.65;;
54121;SDS011;40029;58.708;50.190;2023-01-28T20:15:28;13.00;;;4.97;;
54121;SDS011;40029;58.708;50.190;2023-01-28T20:17:59;26.17;;;6.53;;
54121;SDS011;40029;58.708;50.190;2023-01-28T20:20:30;17.48;;;6.75;;
54121;SDS011;40029;58.708;50.190;2023-01-28T20:23:01;12.75;;;6.20;;
54121;SDS011;40029;58.708;50.190;2023-01-28T20:25:35;20.77;;;6.85;;
54121;SDS011;40029;58.708;50.190;2023-01-28T20:28:06;20.05;;;5.97;;
54121;SDS011;40029;58.708;50.190;2023-01-28T20:30:37;11.43;;;3.97;;
